sensor_id;sensor_type;location;lat;lon;timestamp;temperature;humidity
20590;DHT22;10453;50.810;12.540;2022-07-18T00:00:51;12.10;99.90
20590;DHT22;10453;50.810;12.540;2022-07-18T00:05:09;12.00;99.90
20590;DHT22;10453;50.810;12.540;2022-07-18T00:09:26;12.00;99.90
20590;DHT22;10453;50.810;12.540;2022-07-18T00:13:51;11.90;99.90
20590;DHT22;10453;50.810;12.540;2022-07-18T00:18:08;11.70;99.90
20590;DHT22;10453;50.810;12.540;2022-07-18T00:22:26;11.50;99.90
20590;DHT22;10453;50.810;12.540;2022-07-18T00:26:43;11.50;99.90
20590;DHT22;10453;50.810;12.540;2022-07-18T00:31:00;11.60;99.90
20590;DHT22;10453;50.810;12.540;2022-07-18T00:35:18;11.60;99.90
20590;DHT22;10453;50.810;12.540;2022-07-18T00:39:35;11.30;99.90
20590;DHT22;10453;50.810;12.540;2022-07-18T00:43:53;11.20;99.90
20590;DHT22;10453;50.810;12.540;2022-07-18T00:48:10;11.10;99.90
20590;DHT22;10453;50.810;12.540;2022-07-18T00:52:27;10.90;99.90
20590;DHT22;10453;50.810;12.540;2022-07-18T00:56:47;10.70;99.90
20590;DHT22;10453;50.810;12.540;2022-07-18T01:01:04;10.80;99.90
20590;DHT22;10453;50.810;12.540;2022-07-18T01:05:40;10.90;99.90
20590;DHT22;10453;50.810;12.540;2022-07-18T01:09:58;11.10;99.90
20590;DHT22;10453;50.810;12.540;2022-07-18T01:14:15;11.00;99.90
20590;DHT22;10453;50.810;12.540;2022-07-18T01:18:33;10.90;99.90
20590;DHT22;10453;50.810;12.540;2022-07-18T01:22:50;10.90;99.90
20590;DHT22;10453;50.810;12.540;2022-07-18T01:27:08;10.80;99.90
20590;DHT22;10453;50.810;12.540;2022-07-18T01:31:25;10.70;99.90
20590;DHT22;10453;50.810;12.540;2022-07-18T01:35:43;10.50;99.90
20590;DHT22;10453;50.810;12.540;2022-07-18T01:40:01;10.50;99.90
20590;DHT22;10453;50.810;12.540;2022-07-18T01:44:18;10.40;99.90
20590;DHT22;10453;50.810;12.540;2022-07-18T01:48:40;10.40;99.90
20590;DHT22;10453;50.810;12.540;2022-07-18T01:52:57;10.40;99.90
20590;DHT22;10453;50.810;12.540;2022-07-18T01:57:15;10.30;99.90
20590;DHT22;10453;50.810;12.540;2022-07-18T02:01:32;10.10;99.90
20590;DHT22;10453;50.810;12.540;2022-07-18T02:05:50;10.20;99.90
20590;DHT22;10453;50.810;12.540;2022-07-18T02:10:20;10.10;99.90
20590;DHT22;10453;50.810;12.540;2022-07-18T02:14:38;9.90;99.90
20590;DHT22;10453;50.810;12.540;2022-07-18T02:18:55;9.80;99.90
20590;DHT22;10453;50.810;12.540;2022-07-18T02:23:13;9.90;99.90
20590;DHT22;10453;50.810;12.540;2022-07-18T02:27:30;9.90;99.90
20590;DHT22;10453;50.810;12.540;2022-07-18T02:31:48;9.90;99.90
20590;DHT22;10453;50.810;12.540;2022-07-18T02:36:05;9.80;99.90
20590;DHT22;10453;50.810;12.540;2022-07-18T02:40:22;9.70;99.90
20590;DHT22;10453;50.810;12.540;2022-07-18T02:44:39;9.50;99.90
20590;DHT22;10453;50.810;12.540;2022-07-18T02:48:57;9.50;99.90
20590;DHT22;10453;50.810;12.540;2022-07-18T02:53:15;9.30;99.90
20590;DHT22;10453;50.810;12.540;2022-07-18T02:57:32;9.30;99.90
20590;DHT22;10453;50.810;12.540;2022-07-18T03:01:49;9.40;99.90
20590;DHT22;10453;50.810;12.540;2022-07-18T03:06:07;9.30;99.90
20590;DHT22;10453;50.810;12.540;2022-07-18T03:10:25;9.30;99.90
20590;DHT22;10453;50.810;12.540;2022-07-18T03:14:42;9.50;99.90
20590;DHT22;10453;50.810;12.540;2022-07-18T03:19:00;9.60;99.90
20590;DHT22;10453;50.810;12.540;2022-07-18T03:23:17;9.50;99.90
20590;DHT22;10453;50.810;12.540;2022-07-18T03:27:34;9.60;99.90
20590;DHT22;10453;50.810;12.540;2022-07-18T03:31:52;9.50;99.90
20590;DHT22;10453;50.810;12.540;2022-07-18T03:36:09;9.50;99.90
20590;DHT22;10453;50.810;12.540;2022-07-18T03:40:27;9.50;99.90
20590;DHT22;10453;50.810;12.540;2022-07-18T03:44:44;9.40;99.90
20590;DHT22;10453;50.810;12.540;2022-07-18T03:49:03;9.40;99.90
20590;DHT22;10453;50.810;12.540;2022-07-18T03:53:20;9.40;99.90
20590;DHT22;10453;50.810;12.540;2022-07-18T03:57:37;9.50;99.90
20590;DHT22;10453;50.810;12.540;2022-07-18T04:01:55;9.40;99.90
20590;DHT22;10453;50.810;12.540;2022-07-18T04:06:12;9.50;99.90
20590;DHT22;10453;50.810;12.540;2022-07-18T04:10:29;9.60;99.90
20590;DHT22;10453;50.810;12.540;2022-07-18T04:14:47;9.60;99.90
20590;DHT22;10453;50.810;12.540;2022-07-18T04:19:04;9.70;99.90
20590;DHT22;10453;50.810;12.540;2022-07-18T04:23:21;9.80;99.90
20590;DHT22;10453;50.810;12.540;2022-07-18T04:27:38;9.90;99.90
20590;DHT22;10453;50.810;12.540;2022-07-18T04:31:56;10.10;99.90
20590;DHT22;10453;50.810;12.540;2022-07-18T04:36:13;10.10;99.90
20590;DHT22;10453;50.810;12.540;2022-07-18T04:40:31;10.10;99.90
20590;DHT22;10453;50.810;12.540;2022-07-18T04:44:48;10.30;99.90
20590;DHT22;10453;50.810;12.540;2022-07-18T04:49:05;10.30;99.90
20590;DHT22;10453;50.810;12.540;2022-07-18T04:53:23;10.40;99.90
20590;DHT22;10453;50.810;12.540;2022-07-18T04:57:40;10.50;99.90
20590;DHT22;10453;50.810;12.540;2022-07-18T05:01:58;10.60;99.90
20590;DHT22;10453;50.810;12.540;2022-07-18T05:06:16;10.70;99.90
20590;DHT22;10453;50.810;12.540;2022-07-18T05:10:34;10.90;99.90
20590;DHT22;10453;50.810;12.540;2022-07-18T05:14:51;11.00;99.90
20590;DHT22;10453;50.810;12.540;2022-07-18T05:19:18;11.10;99.90
20590;DHT22;10453;50.810;12.540;2022-07-18T05:23:37;11.30;99.90
20590;DHT22;10453;50.810;12.540;2022-07-18T05:27:54;11.40;99.90
20590;DHT22;10453;50.810;12.540;2022-07-18T05:32:12;11.50;99.90
20590;DHT22;10453;50.810;12.540;2022-07-18T05:36:35;11.70;99.90
20590;DHT22;10453;50.810;12.540;2022-07-18T05:40:53;11.90;99.90
20590;DHT22;10453;50.810;12.540;2022-07-18T05:45:11;12.00;99.90
20590;DHT22;10453;50.810;12.540;2022-07-18T05:49:29;12.10;99.90
20590;DHT22;10453;50.810;12.540;2022-07-18T05:53:47;12.30;99.90
20590;DHT22;10453;50.810;12.540;2022-07-18T05:58:04;12.50;99.90
20590;DHT22;10453;50.810;12.540;2022-07-18T06:02:21;12.80;99.90
20590;DHT22;10453;50.810;12.540;2022-07-18T06:06:39;13.00;99.90
20590;DHT22;10453;50.810;12.540;2022-07-18T06:10:57;13.10;99.90
20590;DHT22;10453;50.810;12.540;2022-07-18T06:15:14;13.30;99.90
20590;DHT22;10453;50.810;12.540;2022-07-18T06:19:32;13.70;99.90
20590;DHT22;10453;50.810;12.540;2022-07-18T06:23:49;14.00;99.90
20590;DHT22;10453;50.810;12.540;2022-07-18T06:28:06;14.50;99.90
20590;DHT22;10453;50.810;12.540;2022-07-18T06:32:24;14.70;99.90
20590;DHT22;10453;50.810;12.540;2022-07-18T06:36:41;14.90;99.90
20590;DHT22;10453;50.810;12.540;2022-07-18T06:40:58;14.90;99.90
20590;DHT22;10453;50.810;12.540;2022-07-18T06:45:15;15.00;99.90
20590;DHT22;10453;50.810;12.540;2022-07-18T06:49:33;15.20;99.90
20590;DHT22;10453;50.810;12.540;2022-07-18T06:53:50;15.40;99.90
20590;DHT22;10453;50.810;12.540;2022-07-18T06:58:08;15.50;99.90
20590;DHT22;10453;50.810;12.540;2022-07-18T07:02:26;16.10;99.90
20590;DHT22;10453;50.810;12.540;2022-07-18T07:06:44;16.10;99.90
20590;DHT22;10453;50.810;12.540;2022-07-18T07:11:01;16.20;99.90
20590;DHT22;10453;50.810;12.540;2022-07-18T07:15:21;16.50;99.90
20590;DHT22;10453;50.810;12.540;2022-07-18T07:19:38;16.80;99.90
20590;DHT22;10453;50.810;12.540;2022-07-18T07:23:55;17.20;99.90
20590;DHT22;10453;50.810;12.540;2022-07-18T07:28:13;17.40;99.90
20590;DHT22;10453;50.810;12.540;2022-07-18T07:32:37;17.60;99.50
20590;DHT22;10453;50.810;12.540;2022-07-18T07:36:54;17.80;95.70
20590;DHT22;10453;50.810;12.540;2022-07-18T07:41:12;18.20;93.10
20590;DHT22;10453;50.810;12.540;2022-07-18T07:45:30;18.70;91.80
20590;DHT22;10453;50.810;12.540;2022-07-18T07:49:48;18.90;89.70
20590;DHT22;10453;50.810;12.540;2022-07-18T07:54:05;20.10;83.80
20590;DHT22;10453;50.810;12.540;2022-07-18T07:58:22;22.40;75.90
20590;DHT22;10453;50.810;12.540;2022-07-18T08:02:57;22.70;71.80
20590;DHT22;10453;50.810;12.540;2022-07-18T08:07:16;23.10;67.00
20590;DHT22;10453;50.810;12.540;2022-07-18T08:11:34;23.80;62.80
20590;DHT22;10453;50.810;12.540;2022-07-18T08:15:51;24.60;65.30
20590;DHT22;10453;50.810;12.540;2022-07-18T08:20:09;25.00;60.60
20590;DHT22;10453;50.810;12.540;2022-07-18T08:24:26;25.00;58.20
20590;DHT22;10453;50.810;12.540;2022-07-18T08:28:44;25.40;59.30
20590;DHT22;10453;50.810;12.540;2022-07-18T08:33:01;25.70;54.00
20590;DHT22;10453;50.810;12.540;2022-07-18T08:37:19;26.50;54.20
20590;DHT22;10453;50.810;12.540;2022-07-18T08:41:37;26.70;51.60
20590;DHT22;10453;50.810;12.540;2022-07-18T08:46:02;27.30;45.40
20590;DHT22;10453;50.810;12.540;2022-07-18T08:50:20;27.00;49.50
20590;DHT22;10453;50.810;12.540;2022-07-18T08:54:37;27.30;43.20
20590;DHT22;10453;50.810;12.540;2022-07-18T08:58:55;27.40;47.20
20590;DHT22;10453;50.810;12.540;2022-07-18T09:03:12;28.00;44.70
20590;DHT22;10453;50.810;12.540;2022-07-18T09:07:32;28.50;45.00
20590;DHT22;10453;50.810;12.540;2022-07-18T09:12:02;29.20;47.10
20590;DHT22;10453;50.810;12.540;2022-07-18T09:16:20;28.80;40.90
20590;DHT22;10453;50.810;12.540;2022-07-18T09:20:39;28.70;42.50
20590;DHT22;10453;50.810;12.540;2022-07-18T09:29:18;28.60;42.10
20590;DHT22;10453;50.810;12.540;2022-07-18T09:33:57;29.10;41.60
20590;DHT22;10453;50.810;12.540;2022-07-18T09:38:14;29.50;39.60
20590;DHT22;10453;50.810;12.540;2022-07-18T09:42:32;29.80;41.80
20590;DHT22;10453;50.810;12.540;2022-07-18T09:47:03;29.80;38.50
20590;DHT22;10453;50.810;12.540;2022-07-18T09:51:21;29.60;42.60
20590;DHT22;10453;50.810;12.540;2022-07-18T09:55:43;30.00;36.60
20590;DHT22;10453;50.810;12.540;2022-07-18T10:00:01;30.70;35.70
20590;DHT22;10453;50.810;12.540;2022-07-18T10:04:18;30.40;35.20
20590;DHT22;10453;50.810;12.540;2022-07-18T10:08:36;30.70;35.80
20590;DHT22;10453;50.810;12.540;2022-07-18T10:12:55;31.50;36.60
20590;DHT22;10453;50.810;12.540;2022-07-18T10:17:12;29.50;36.20
20590;DHT22;10453;50.810;12.540;2022-07-18T10:21:30;29.60;37.00
20590;DHT22;10453;50.810;12.540;2022-07-18T10:30:32;30.60;35.70
20590;DHT22;10453;50.810;12.540;2022-07-18T10:34:50;28.70;38.10
20590;DHT22;10453;50.810;12.540;2022-07-18T10:39:15;28.80;40.20
20590;DHT22;10453;50.810;12.540;2022-07-18T10:43:43;29.30;37.10
20590;DHT22;10453;50.810;12.540;2022-07-18T10:57:08;30.10;36.50
20590;DHT22;10453;50.810;12.540;2022-07-18T11:01:26;30.70;41.00
20590;DHT22;10453;50.810;12.540;2022-07-18T11:05:50;30.80;38.00
20590;DHT22;10453;50.810;12.540;2022-07-18T11:10:07;31.10;33.70
20590;DHT22;10453;50.810;12.540;2022-07-18T11:19:27;31.80;36.60
20590;DHT22;10453;50.810;12.540;2022-07-18T11:23:46;31.20;34.60
20590;DHT22;10453;50.810;12.540;2022-07-18T11:28:07;31.00;38.90
20590;DHT22;10453;50.810;12.540;2022-07-18T11:32:25;31.40;35.70
20590;DHT22;10453;50.810;12.540;2022-07-18T11:36:44;31.40;35.70
20590;DHT22;10453;50.810;12.540;2022-07-18T11:41:03;31.00;34.70
20590;DHT22;10453;50.810;12.540;2022-07-18T11:45:22;31.70;36.00
20590;DHT22;10453;50.810;12.540;2022-07-18T11:49:39;32.70;35.30
20590;DHT22;10453;50.810;12.540;2022-07-18T11:53:56;32.70;40.10
20590;DHT22;10453;50.810;12.540;2022-07-18T11:58:14;33.20;33.60
20590;DHT22;10453;50.810;12.540;2022-07-18T12:02:32;32.40;36.80
20590;DHT22;10453;50.810;12.540;2022-07-18T12:07:14;32.60;34.60
20590;DHT22;10453;50.810;12.540;2022-07-18T12:11:33;32.00;34.90
20590;DHT22;10453;50.810;12.540;2022-07-18T12:15:51;32.10;37.50
20590;DHT22;10453;50.810;12.540;2022-07-18T12:20:19;32.30;33.30
20590;DHT22;10453;50.810;12.540;2022-07-18T12:24:51;32.00;38.20
20590;DHT22;10453;50.810;12.540;2022-07-18T12:29:09;31.40;35.10
20590;DHT22;10453;50.810;12.540;2022-07-18T12:33:27;31.80;39.10
20590;DHT22;10453;50.810;12.540;2022-07-18T12:42:33;33.60;36.50
20590;DHT22;10453;50.810;12.540;2022-07-18T12:46:51;33.60;36.50
20590;DHT22;10453;50.810;12.540;2022-07-18T12:51:10;33.50;36.90
20590;DHT22;10453;50.810;12.540;2022-07-18T12:55:28;33.80;38.40
20590;DHT22;10453;50.810;12.540;2022-07-18T12:59:49;31.60;36.00
20590;DHT22;10453;50.810;12.540;2022-07-18T13:04:06;32.10;34.70
20590;DHT22;10453;50.810;12.540;2022-07-18T13:08:23;31.90;33.80
20590;DHT22;10453;50.810;12.540;2022-07-18T13:12:44;32.40;37.40
20590;DHT22;10453;50.810;12.540;2022-07-18T13:17:01;32.90;34.20
20590;DHT22;10453;50.810;12.540;2022-07-18T13:21:19;32.90;34.50
20590;DHT22;10453;50.810;12.540;2022-07-18T13:25:36;33.30;34.50
20590;DHT22;10453;50.810;12.540;2022-07-18T13:29:54;33.00;34.20
20590;DHT22;10453;50.810;12.540;2022-07-18T13:34:11;32.40;35.40
20590;DHT22;10453;50.810;12.540;2022-07-18T13:38:29;33.20;34.40
20590;DHT22;10453;50.810;12.540;2022-07-18T13:42:46;34.40;34.00
20590;DHT22;10453;50.810;12.540;2022-07-18T13:47:04;33.60;35.10
20590;DHT22;10453;50.810;12.540;2022-07-18T13:51:21;33.30;36.20
20590;DHT22;10453;50.810;12.540;2022-07-18T13:55:38;33.00;34.70
20590;DHT22;10453;50.810;12.540;2022-07-18T13:59:55;32.40;35.30
20590;DHT22;10453;50.810;12.540;2022-07-18T14:04:13;32.30;33.30
20590;DHT22;10453;50.810;12.540;2022-07-18T14:08:37;32.00;34.70
20590;DHT22;10453;50.810;12.540;2022-07-18T14:12:54;32.70;35.30
20590;DHT22;10453;50.810;12.540;2022-07-18T14:17:11;33.60;34.60
20590;DHT22;10453;50.810;12.540;2022-07-18T14:21:28;32.70;32.90
20590;DHT22;10453;50.810;12.540;2022-07-18T14:25:46;31.70;36.70
20590;DHT22;10453;50.810;12.540;2022-07-18T14:30:05;32.50;34.90
20590;DHT22;10453;50.810;12.540;2022-07-18T14:34:22;32.90;32.70
20590;DHT22;10453;50.810;12.540;2022-07-18T14:38:40;32.70;34.00
20590;DHT22;10453;50.810;12.540;2022-07-18T14:42:57;33.00;35.20
20590;DHT22;10453;50.810;12.540;2022-07-18T14:47:14;32.50;33.50
20590;DHT22;10453;50.810;12.540;2022-07-18T14:51:31;32.40;38.20
20590;DHT22;10453;50.810;12.540;2022-07-18T14:55:49;32.30;36.40
20590;DHT22;10453;50.810;12.540;2022-07-18T15:00:08;31.70;36.50
20590;DHT22;10453;50.810;12.540;2022-07-18T15:04:26;32.30;36.60
20590;DHT22;10453;50.810;12.540;2022-07-18T15:08:43;32.70;35.10
20590;DHT22;10453;50.810;12.540;2022-07-18T15:13:00;32.70;35.30
20590;DHT22;10453;50.810;12.540;2022-07-18T15:17:18;32.30;37.20
20590;DHT22;10453;50.810;12.540;2022-07-18T15:21:35;31.50;40.80
20590;DHT22;10453;50.810;12.540;2022-07-18T15:25:52;31.90;38.20
20590;DHT22;10453;50.810;12.540;2022-07-18T15:30:11;32.30;39.10
20590;DHT22;10453;50.810;12.540;2022-07-18T15:34:49;33.10;33.10
20590;DHT22;10453;50.810;12.540;2022-07-18T15:39:06;32.40;34.20
20590;DHT22;10453;50.810;12.540;2022-07-18T15:43:23;31.30;39.90
20590;DHT22;10453;50.810;12.540;2022-07-18T15:47:40;31.70;40.30
20590;DHT22;10453;50.810;12.540;2022-07-18T15:51:58;31.40;37.20
20590;DHT22;10453;50.810;12.540;2022-07-18T15:56:15;31.70;38.10
20590;DHT22;10453;50.810;12.540;2022-07-18T16:00:32;31.70;37.00
20590;DHT22;10453;50.810;12.540;2022-07-18T16:04:50;31.10;36.20
20590;DHT22;10453;50.810;12.540;2022-07-18T16:09:07;30.50;36.30
20590;DHT22;10453;50.810;12.540;2022-07-18T16:13:24;30.10;38.40
20590;DHT22;10453;50.810;12.540;2022-07-18T16:17:42;29.70;38.30
20590;DHT22;10453;50.810;12.540;2022-07-18T16:21:59;29.90;38.20
20590;DHT22;10453;50.810;12.540;2022-07-18T16:26:16;29.80;40.10
20590;DHT22;10453;50.810;12.540;2022-07-18T16:30:34;29.60;40.80
20590;DHT22;10453;50.810;12.540;2022-07-18T16:34:51;29.20;38.20
20590;DHT22;10453;50.810;12.540;2022-07-18T16:39:09;29.10;41.50
20590;DHT22;10453;50.810;12.540;2022-07-18T16:43:26;29.00;42.40
20590;DHT22;10453;50.810;12.540;2022-07-18T16:47:44;28.80;42.30
20590;DHT22;10453;50.810;12.540;2022-07-18T16:52:07;28.30;39.40
20590;DHT22;10453;50.810;12.540;2022-07-18T16:56:25;28.30;40.90
20590;DHT22;10453;50.810;12.540;2022-07-18T17:00:42;28.20;43.80
20590;DHT22;10453;50.810;12.540;2022-07-18T17:05:00;28.10;44.40
20590;DHT22;10453;50.810;12.540;2022-07-18T17:09:17;28.00;43.10
20590;DHT22;10453;50.810;12.540;2022-07-18T17:13:35;27.90;45.40
20590;DHT22;10453;50.810;12.540;2022-07-18T17:17:52;27.80;44.30
20590;DHT22;10453;50.810;12.540;2022-07-18T17:22:18;27.70;44.70
20590;DHT22;10453;50.810;12.540;2022-07-18T17:26:36;27.50;44.80
20590;DHT22;10453;50.810;12.540;2022-07-18T17:30:53;27.50;45.90
20590;DHT22;10453;50.810;12.540;2022-07-18T17:35:11;27.40;45.90
20590;DHT22;10453;50.810;12.540;2022-07-18T17:39:37;27.20;45.40
20590;DHT22;10453;50.810;12.540;2022-07-18T17:43:54;27.20;45.30
20590;DHT22;10453;50.810;12.540;2022-07-18T17:48:11;27.10;46.70
20590;DHT22;10453;50.810;12.540;2022-07-18T17:52:29;27.00;47.80
20590;DHT22;10453;50.810;12.540;2022-07-18T17:56:46;26.80;47.90
20590;DHT22;10453;50.810;12.540;2022-07-18T18:01:03;26.70;48.20
20590;DHT22;10453;50.810;12.540;2022-07-18T18:05:21;26.60;49.00
20590;DHT22;10453;50.810;12.540;2022-07-18T18:09:38;26.50;51.20
20590;DHT22;10453;50.810;12.540;2022-07-18T18:13:56;26.30;51.20
20590;DHT22;10453;50.810;12.540;2022-07-18T18:18:13;26.20;50.90
20590;DHT22;10453;50.810;12.540;2022-07-18T18:22:30;25.90;53.30
20590;DHT22;10453;50.810;12.540;2022-07-18T18:26:49;25.70;54.80
20590;DHT22;10453;50.810;12.540;2022-07-18T18:31:06;25.30;55.40
20590;DHT22;10453;50.810;12.540;2022-07-18T18:35:24;25.10;57.40
20590;DHT22;10453;50.810;12.540;2022-07-18T18:39:41;24.90;55.50
20590;DHT22;10453;50.810;12.540;2022-07-18T18:43:59;24.60;57.70
20590;DHT22;10453;50.810;12.540;2022-07-18T18:48:16;24.30;60.20
20590;DHT22;10453;50.810;12.540;2022-07-18T18:52:33;24.00;62.30
20590;DHT22;10453;50.810;12.540;2022-07-18T18:56:53;23.60;64.10
20590;DHT22;10453;50.810;12.540;2022-07-18T19:01:10;23.20;65.80
20590;DHT22;10453;50.810;12.540;2022-07-18T19:05:27;22.90;67.10
20590;DHT22;10453;50.810;12.540;2022-07-18T19:09:45;22.60;69.30
20590;DHT22;10453;50.810;12.540;2022-07-18T19:14:02;22.20;70.40
20590;DHT22;10453;50.810;12.540;2022-07-18T19:18:20;21.70;72.70
20590;DHT22;10453;50.810;12.540;2022-07-18T19:22:37;21.40;75.10
20590;DHT22;10453;50.810;12.540;2022-07-18T19:26:55;21.30;77.30
20590;DHT22;10453;50.810;12.540;2022-07-18T19:31:12;20.90;78.10
20590;DHT22;10453;50.810;12.540;2022-07-18T19:35:29;20.60;80.10
20590;DHT22;10453;50.810;12.540;2022-07-18T19:39:47;20.40;83.30
20590;DHT22;10453;50.810;12.540;2022-07-18T19:44:04;20.30;83.80
20590;DHT22;10453;50.810;12.540;2022-07-18T19:48:24;19.90;85.20
20590;DHT22;10453;50.810;12.540;2022-07-18T19:52:42;19.80;88.20
20590;DHT22;10453;50.810;12.540;2022-07-18T19:56:59;19.60;90.10
20590;DHT22;10453;50.810;12.540;2022-07-18T20:01:16;19.60;90.70
20590;DHT22;10453;50.810;12.540;2022-07-18T20:05:35;19.40;91.20
20590;DHT22;10453;50.810;12.540;2022-07-18T20:09:53;19.30;92.50
20590;DHT22;10453;50.810;12.540;2022-07-18T20:14:10;19.20;93.10
20590;DHT22;10453;50.810;12.540;2022-07-18T20:18:28;19.00;93.20
20590;DHT22;10453;50.810;12.540;2022-07-18T20:22:45;18.80;94.30
20590;DHT22;10453;50.810;12.540;2022-07-18T20:27:02;18.70;96.20
20590;DHT22;10453;50.810;12.540;2022-07-18T20:31:20;18.60;98.60
20590;DHT22;10453;50.810;12.540;2022-07-18T20:35:37;18.30;99.90
20590;DHT22;10453;50.810;12.540;2022-07-18T20:39:55;18.10;99.90
20590;DHT22;10453;50.810;12.540;2022-07-18T20:44:12;18.10;99.90
20590;DHT22;10453;50.810;12.540;2022-07-18T20:48:30;18.10;99.90
20590;DHT22;10453;50.810;12.540;2022-07-18T20:52:47;18.00;99.90
20590;DHT22;10453;50.810;12.540;2022-07-18T20:57:05;18.00;99.90
20590;DHT22;10453;50.810;12.540;2022-07-18T21:01:22;18.00;99.90
20590;DHT22;10453;50.810;12.540;2022-07-18T21:05:40;18.00;99.90
20590;DHT22;10453;50.810;12.540;2022-07-18T21:09:58;17.80;99.90
20590;DHT22;10453;50.810;12.540;2022-07-18T21:14:15;17.60;99.90
20590;DHT22;10453;50.810;12.540;2022-07-18T21:18:51;17.50;99.90
20590;DHT22;10453;50.810;12.540;2022-07-18T21:23:08;17.40;99.90
20590;DHT22;10453;50.810;12.540;2022-07-18T21:27:25;17.30;99.90
20590;DHT22;10453;50.810;12.540;2022-07-18T21:31:43;17.10;99.90
20590;DHT22;10453;50.810;12.540;2022-07-18T21:36:00;17.00;99.90
20590;DHT22;10453;50.810;12.540;2022-07-18T21:40:17;16.80;99.90
20590;DHT22;10453;50.810;12.540;2022-07-18T21:44:35;16.60;99.90
20590;DHT22;10453;50.810;12.540;2022-07-18T21:48:52;16.70;99.90
20590;DHT22;10453;50.810;12.540;2022-07-18T21:53:09;16.40;99.90
20590;DHT22;10453;50.810;12.540;2022-07-18T21:57:27;16.10;99.90
20590;DHT22;10453;50.810;12.540;2022-07-18T22:01:44;16.10;99.90
20590;DHT22;10453;50.810;12.540;2022-07-18T22:06:02;16.10;99.90
20590;DHT22;10453;50.810;12.540;2022-07-18T22:10:19;16.10;99.90
20590;DHT22;10453;50.810;12.540;2022-07-18T22:14:37;16.20;99.90
20590;DHT22;10453;50.810;12.540;2022-07-18T22:18:55;16.10;99.90
20590;DHT22;10453;50.810;12.540;2022-07-18T22:23:12;16.00;99.90
20590;DHT22;10453;50.810;12.540;2022-07-18T22:27:29;16.00;99.90
20590;DHT22;10453;50.810;12.540;2022-07-18T22:31:47;15.90;99.90
20590;DHT22;10453;50.810;12.540;2022-07-18T22:36:05;16.00;99.90
20590;DHT22;10453;50.810;12.540;2022-07-18T22:40:23;16.00;99.90
20590;DHT22;10453;50.810;12.540;2022-07-18T22:44:40;15.80;99.90
20590;DHT22;10453;50.810;12.540;2022-07-18T22:48:57;15.90;99.90
20590;DHT22;10453;50.810;12.540;2022-07-18T22:53:14;15.60;99.90
20590;DHT22;10453;50.810;12.540;2022-07-18T22:57:32;15.50;99.90
20590;DHT22;10453;50.810;12.540;2022-07-18T23:01:49;15.40;99.90
20590;DHT22;10453;50.810;12.540;2022-07-18T23:06:06;15.30;99.90
20590;DHT22;10453;50.810;12.540;2022-07-18T23:10:28;15.40;99.90
20590;DHT22;10453;50.810;12.540;2022-07-18T23:14:45;15.50;99.90
20590;DHT22;10453;50.810;12.540;2022-07-18T23:19:02;15.30;99.90
20590;DHT22;10453;50.810;12.540;2022-07-18T23:23:19;15.10;99.90
20590;DHT22;10453;50.810;12.540;2022-07-18T23:27:37;15.10;99.90
20590;DHT22;10453;50.810;12.540;2022-07-18T23:31:55;15.00;99.90
20590;DHT22;10453;50.810;12.540;2022-07-18T23:36:12;14.90;99.90
20590;DHT22;10453;50.810;12.540;2022-07-18T23:40:29;14.90;99.90
20590;DHT22;10453;50.810;12.540;2022-07-18T23:44:46;14.90;99.90
20590;DHT22;10453;50.810;12.540;2022-07-18T23:49:04;14.90;99.90
20590;DHT22;10453;50.810;12.540;2022-07-18T23:53:21;14.80;99.90
20590;DHT22;10453;50.810;12.540;2022-07-18T23:57:39;14.80;99.90
